JAL127 RJTT-RJOO
Flight info
| Callsign | JAL127 |
|---|---|
| Flight time | N/A |
| Altitude | 28000 |
| Route | LAXAS Y56 TOHME Y54 KOHWA Y546 AGPUK MIRAI ABENO IKOMA |
| Aircraft | B742/H-SDFHIRWXY/L |
Departure
| Time | N/A |
|---|---|
| Airport | Tokyo Haneda International Airport (RJTT) |
Arrival
| Time | 2026-05-08 11:40 |
|---|---|
| Airport | Osaka Itami International Airport (RJOO) |
| Time | Latitude | Longitude | Altitude | Speed | Heading |
|---|---|---|---|---|---|
| 2026-05-08 11:20 | 34.74299 | 136.60066 | 10512 ft | 262 kts | 217° |
| 2026-05-08 11:20 | 34.72731 | 136.58908 | 10483 ft | 262 kts | 217° |
| 2026-05-08 11:20 | 34.71172 | 136.57747 | 10455 ft | 260 kts | 217° |
| 2026-05-08 11:20 | 34.69620 | 136.56595 | 10425 ft | 261 kts | 217° |
| 2026-05-08 11:21 | 34.68062 | 136.55440 | 10398 ft | 263 kts | 217° |
| 2026-05-08 11:21 | 34.66508 | 136.54280 | 10370 ft | 262 kts | 217° |
| 2026-05-08 11:21 | 34.64957 | 136.53119 | 10335 ft | 261 kts | 217° |
| 2026-05-08 11:21 | 34.63401 | 136.51952 | 10306 ft | 263 kts | 217° |
| 2026-05-08 11:22 | 34.61850 | 136.50800 | 10285 ft | 262 kts | 217° |
| 2026-05-08 11:22 | 34.60292 | 136.49637 | 10261 ft | 262 kts | 217° |
| 2026-05-08 11:22 | 34.58831 | 136.48361 | 10188 ft | 255 kts | 232° |
| 2026-05-08 11:22 | 34.58051 | 136.46480 | 10079 ft | 247 kts | 257° |
| 2026-05-08 11:23 | 34.57721 | 136.44482 | 9989 ft | 234 kts | 258° |
| 2026-05-08 11:23 | 34.57361 | 136.42615 | 9842 ft | 225 kts | 256° |
| 2026-05-08 11:23 | 34.56944 | 136.40802 | 9663 ft | 220 kts | 254° |
| 2026-05-08 11:23 | 34.56504 | 136.39052 | 9690 ft | 217 kts | 253° |
| 2026-05-08 11:24 | 34.56042 | 136.37282 | 9425 ft | 221 kts | 253° |
| 2026-05-08 11:24 | 34.55576 | 136.35532 | 9151 ft | 219 kts | 253° |
| 2026-05-08 11:24 | 34.55101 | 136.33756 | 8877 ft | 219 kts | 253° |
| 2026-05-08 11:24 | 34.54634 | 136.32022 | 8613 ft | 218 kts | 253° |
| 2026-05-08 11:25 | 34.54163 | 136.30283 | 8344 ft | 217 kts | 253° |
| 2026-05-08 11:25 | 34.53693 | 136.28536 | 8227 ft | 212 kts | 253° |
| 2026-05-08 11:25 | 34.53229 | 136.26817 | 8303 ft | 218 kts | 253° |
| 2026-05-08 11:25 | 34.52754 | 136.25063 | 8313 ft | 220 kts | 253° |
| 2026-05-08 11:26 | 34.52272 | 136.23312 | 8310 ft | 217 kts | 251° |
| 2026-05-08 11:26 | 34.52005 | 136.21545 | 8318 ft | 218 kts | 268° |
| 2026-05-08 11:26 | 34.52023 | 136.19690 | 8190 ft | 220 kts | 271° |
| 2026-05-08 11:26 | 34.52068 | 136.17839 | 7954 ft | 218 kts | 271° |
| 2026-05-08 11:27 | 34.52116 | 136.16034 | 7723 ft | 216 kts | 271° |
| 2026-05-08 11:27 | 34.52058 | 136.14191 | 7483 ft | 217 kts | 265° |
| 2026-05-08 11:27 | 34.51920 | 136.12366 | 7242 ft | 217 kts | 265° |
| 2026-05-08 11:27 | 34.51775 | 136.10561 | 6999 ft | 216 kts | 265° |
| 2026-05-08 11:28 | 34.51626 | 136.08742 | 6755 ft | 214 kts | 265° |
| 2026-05-08 11:28 | 34.51479 | 136.06947 | 6564 ft | 213 kts | 266° |
| 2026-05-08 11:28 | 34.51658 | 136.05196 | 6443 ft | 214 kts | 283° |
| 2026-05-08 11:28 | 34.52077 | 136.03429 | 6318 ft | 217 kts | 285° |
| 2026-05-08 11:29 | 34.52504 | 136.01683 | 6190 ft | 215 kts | 285° |
| 2026-05-08 11:29 | 34.52925 | 135.99927 | 6014 ft | 215 kts | 285° |
| 2026-05-08 11:29 | 34.53329 | 135.98186 | 5795 ft | 215 kts | 285° |
| 2026-05-08 11:29 | 34.53728 | 135.96433 | 5578 ft | 215 kts | 285° |
| 2026-05-08 11:30 | 34.54116 | 135.94694 | 5365 ft | 215 kts | 285° |
| 2026-05-08 11:30 | 34.54493 | 135.92950 | 5153 ft | 214 kts | 285° |
| 2026-05-08 11:30 | 34.54863 | 135.91197 | 4941 ft | 213 kts | 285° |
| 2026-05-08 11:30 | 34.55226 | 135.89452 | 4734 ft | 214 kts | 285° |
| 2026-05-08 11:31 | 34.55577 | 135.87703 | 4519 ft | 212 kts | 285° |
| 2026-05-08 11:31 | 34.55917 | 135.85950 | 4308 ft | 214 kts | 285° |
| 2026-05-08 11:31 | 34.56243 | 135.84206 | 4103 ft | 212 kts | 285° |
| 2026-05-08 11:31 | 34.56560 | 135.82463 | 4028 ft | 211 kts | 285° |
| 2026-05-08 11:32 | 34.56873 | 135.80718 | 4010 ft | 211 kts | 285° |
| 2026-05-08 11:32 | 34.57189 | 135.78954 | 4009 ft | 213 kts | 285° |
| 2026-05-08 11:32 | 34.57500 | 135.77223 | 4002 ft | 211 kts | 285° |
| 2026-05-08 11:32 | 34.57818 | 135.75462 | 4002 ft | 214 kts | 285° |
| 2026-05-08 11:33 | 34.58131 | 135.73712 | 3992 ft | 213 kts | 285° |
| 2026-05-08 11:33 | 34.58447 | 135.71942 | 4002 ft | 213 kts | 285° |
| 2026-05-08 11:33 | 34.58762 | 135.70172 | 4008 ft | 214 kts | 286° |
| 2026-05-08 11:33 | 34.59278 | 135.68517 | 3997 ft | 212 kts | 287° |
| 2026-05-08 11:34 | 34.59695 | 135.66792 | 4040 ft | 210 kts | 302° |
| 2026-05-08 11:34 | 34.60528 | 135.65323 | 4109 ft | 212 kts | 307° |
| 2026-05-08 11:34 | 34.61493 | 135.63965 | 4023 ft | 209 kts | 314° |
| 2026-05-08 11:34 | 34.62535 | 135.62759 | 3864 ft | 206 kts | 317° |
| 2026-05-08 11:35 | 34.63581 | 135.61601 | 3667 ft | 201 kts | 317° |
| 2026-05-08 11:35 | 34.64605 | 135.60431 | 3438 ft | 198 kts | 316° |
| 2026-05-08 11:35 | 34.65586 | 135.59267 | 3189 ft | 195 kts | 316° |
| 2026-05-08 11:35 | 34.66522 | 135.58138 | 2920 ft | 185 kts | 316° |
| 2026-05-08 11:36 | 34.67408 | 135.57060 | 2677 ft | 174 kts | 316° |
| 2026-05-08 11:36 | 34.68249 | 135.56039 | 2478 ft | 166 kts | 316° |
| 2026-05-08 11:36 | 34.69038 | 135.55084 | 2237 ft | 156 kts | 317° |
| 2026-05-08 11:36 | 34.69791 | 135.54170 | 2091 ft | 149 kts | 317° |
| 2026-05-08 11:37 | 34.70527 | 135.53282 | 1906 ft | 143 kts | 317° |
| 2026-05-08 11:37 | 34.71191 | 135.52478 | 1783 ft | 128 kts | 317° |
| 2026-05-08 11:37 | 34.71812 | 135.51729 | 1558 ft | 124 kts | 317° |
| 2026-05-08 11:37 | 34.72420 | 135.50992 | 1351 ft | 122 kts | 317° |
| 2026-05-08 11:38 | 34.73025 | 135.50264 | 1220 ft | 122 kts | 315° |
| 2026-05-08 11:38 | 34.73624 | 135.49536 | 1057 ft | 122 kts | 317° |
| 2026-05-08 11:38 | 34.74232 | 135.48814 | 908 ft | 124 kts | 316° |
| 2026-05-08 11:38 | 34.74846 | 135.48051 | 771 ft | 128 kts | 315° |
| 2026-05-08 11:39 | 34.75482 | 135.47281 | 613 ft | 129 kts | 315° |
| 2026-05-08 11:39 | 34.76120 | 135.46507 | 422 ft | 129 kts | 315° |
| 2026-05-08 11:39 | 34.76759 | 135.45726 | 244 ft | 129 kts | 318° |
| 2026-05-08 11:39 | 34.77393 | 135.44978 | 76 ft | 126 kts | 316° |
| 2026-05-08 11:40 | 34.77971 | 135.44281 | 60 ft | 104 kts | 314° |
| 2026-05-08 11:40 | 34.78356 | 135.43810 | 60 ft | 51 kts | 315° |
| 2026-05-08 11:40 | 34.78598 | 135.43556 | 60 ft | 40 kts | 336° |
| 2026-05-08 11:40 | 34.78748 | 135.43477 | 60 ft | 8 kts | 334° |
| 2026-05-08 11:41 | 34.78796 | 135.43449 | 60 ft | 7 kts | 336° |
| 2026-05-08 11:41 | 34.78852 | 135.43427 | 60 ft | 10 kts | 348° |
| 2026-05-08 11:41 | 34.78932 | 135.43425 | 60 ft | 13 kts | 11° |
| 2026-05-08 11:41 | 34.79019 | 135.43474 | 60 ft | 12 kts | 35° |
| 2026-05-08 11:42 | 34.79061 | 135.43527 | 60 ft | 7 kts | 67° |
| 2026-05-08 11:42 | 34.79062 | 135.43582 | 60 ft | 5 kts | 99° |
| 2026-05-08 11:42 | 34.79057 | 135.43646 | 60 ft | 9 kts | 94° |
| 2026-05-08 11:42 | 34.79057 | 135.43738 | 60 ft | 13 kts | 73° |
| 2026-05-08 11:43 | 34.79097 | 135.43843 | 60 ft | 12 kts | 67° |
| 2026-05-08 11:43 | 34.79115 | 135.43895 | 60 ft | 3 kts | 68° |
| 2026-05-08 11:43 | 34.79119 | 135.43907 | 60 ft | 0 kts | 68° |